Aviation Digital Data Service (ADDS)

Output produced by METARs form (0243 UTC 24 July 2017)
found at http://www.aviationweather.gov/adds/metars/
 
LFLB 240230Z AUTO VRB02KT 9999 RA SCT049/// OVC100/// ///TCU 18/15 Q1014 NOSIG
TAF LFLB 232300Z 2400/2424 VRB02KT CAVOK 
     BECMG 2402/2406 SHRA SCT030TCU BKN040
       
LFBZ 240230Z AUTO 28014KT 9999 SCT015 SCT033 BKN039 20/17 Q1020 TEMPO 3000 RA OVC004 SCT010TCU
TAF AMD LFBZ 240116Z 2401/2424 26009KT 9999 BKN015 
     TEMPO 2401/2406 3000 RA OVC004 SCT010TCU 
     TEMPO 2406/2414 30015G25KT 3000 SHRA BKN010TCU 
     BECMG 2414/2416 BKN030
       
LFRT 232100Z AUTO 31005KT 9000 BKN006 13/13 Q1016
LFRM 240230Z AUTO VRB02KT 9999 FEW006 BKN012 13/12 Q1015
TAF AMD LFRM 231808Z 2318/2403 VRB03KT 9999 BKN020 
     TEMPO 2318/2323 3000 -RA BKN004 OVC012 
     BECMG 2321/2323 34006KT
       
LFLW 240230Z AUTO VRB02KT 5000 -RA BR OVC007 14/13 Q1017
LFLC 240230Z AUTO 18005KT 9999 BKN032 BKN045 OVC054 17/14 Q1014 TEMPO 27015G25KT 4000 RA SCT030TCU OVC050
TAF LFLC 240200Z 2403/2503 23009KT 9999 BKN055 
     TEMPO 2403/2407 27015G25KT 4000 RA SCT030TCU OVC050 
     BECMG 2405/2407 30012KT 
     TEMPO 2407/2503 -SHRA SCT025TCU BKN040
       
LFOA 240230Z AUTO 29005KT 9999 -RA BKN012/// BKN020/// BKN050/// ///TCU 15/14 Q1013
LFSB 240230Z 17004KT 9999 RA SCT055 BKN070 16/14 Q1012 NOSIG
TAF LFSB 232301Z 2400/2424 19005KT 9999 FEW040 SCT065 BKN120 
     TEMPO 2404/2408 4000 RA 
     BECMG 2408/2410 26013KT FEW030TCU 
     TEMPO 2411/2424 29015G25KT 4500 SHRA SCT035CB BKN050 
     PROB30 
     TEMPO 2415/2418 TSRA
       
LFQB 240230Z AUTO 32008KT 9999 -RA OVC003 14/14 Q1011
LFBL 240230Z AUTO 25006KT 210V280 9999 -RA OVC004 16/16 Q1015 TEMPO 26015G25KT 2000 RA
TAF AMD LFBL 240049Z 2400/2424 23009KT 9999 BKN010 
     TEMPO 2400/2408 26015G25KT 2000 RA BKN002 
     BECMG 2408/2410 BKN013 
     BECMG 2410/2413 BKN025
       
LFBI 240230Z AUTO 33005KT 9999 SCT005 BKN019 OVC039 15/14 Q1015 TEMPO 4000 -RADZ BECMG BKN012
TAF AMD LFBI 240135Z 2401/2424 33008KT 9999 BKN012 
     TEMPO 2401/2404 4000 -RADZ OVC005 
     BECMG 2408/2410 BKN030 
     TEMPO 2412/2420 -SHRA BKN045 
       
LFBO 240230Z AUTO 23005KT 190V260 9999 FEW047 OVC070 18/14 Q1018 TEMPO 3000 -RA BKN010
TAF LFBO 232300Z 2400/2506 25012KT 9999 BKN025 
     TEMPO 2404/2410 3000 -RA BKN010 
     TEMPO 2412/2424 30015G25KT 
     TEMPO 2500/2506 BKN010
       
LFMH 240230Z AUTO VRB02KT 5000 RA BR SCT037/// BKN062/// OVC088/// ///TCU 17/14 Q1015 NOSIG
TAF LFMH 240200Z 2403/2503 17009KT 9999 BKN050 
     TEMPO 2403/2409 4000 RA SCT030TCU OVC050 
     BECMG 2407/2409 34012KT 
     TEMPO 2409/2503 -SHRA SCT025TCU BKN040
       
LFAQ 240230Z AUTO 25007KT 9000 FEW012 SCT018 BKN029 13/12 Q1011
LFOJ 240230Z AUTO 30005KT 9999 SCT007 OVC048 14/14 Q1013
TAF LFOJ 231400Z 2315/2415 25015G25KT 9999 BKN030 
     TEMPO 2315/2406 4500 -RA OVC012 
     PROB40 
     TEMPO 2320/2403 3000 RA OVC005 
     PROB40 
     TEMPO 2403/2408 BKN006 
     PROB30 
     TEMPO 2408/2415 -SHRA BKN020
       
LFBU 240230Z AUTO 27007KT 9999 BKN007 OVC011 17/17 Q1015
TAF LFBU 231700Z 2318/2418 25012KT 9999 BKN045 
     BECMG 2318/2320 OVC010 
     TEMPO 2320/2403 3000 RA OVC005 
     BECMG 2407/2409 BKN026
       
LFLY 240230Z AUTO 25004KT 9999 ///TCU 20/13 Q1014 TEMPO RA
TAF LFLY 232300Z 2400/2424 VRB02KT 9999 BKN050 
     TEMPO 2401/2406 VRB12KT RA SCT040TCU OVC045 
     BECMG 2406/2408 32012KT 
     TEMPO 2408/2424 -SHRA SCT030TCU BKN040
       
LFKJ 240230Z AUTO 17004KT 120V250 CAVOK 24/20 Q1011 NOSIG
TAF LFKJ 240200Z 2403/2503 05004KT CAVOK 
     BECMG 2406/2408 28010KT 
     BECMG 2411/2412 30010G22KT 
     BECMG 2500/2503 VRB05KT
       
LFMO 240230Z AUTO 34008KT CAVOK 23/12 Q1013 NOSIG
TAF LFMO 240200Z 2403/2503 30008KT CAVOK 
     BECMG 2411/2413 35015G25KT 
     TEMPO 2415/2503 35025G35KT
       
LFRK 240230Z AUTO 26009KT CAVOK 13/13 Q1013
LFMV 240230Z AUTO 32006KT CAVOK 23/12 Q1013 NOSIG
TAF LFMV 240200Z 2403/2503 30009KT CAVOK 
     TEMPO 2403/2412 35013G23KT 
     TEMPO 2412/2421 35019G33KT
       
LFBC 240230Z AUTO 31011KT 270V340 9999 FEW015 BKN020 BKN028 19/17 Q1017 TEMPO 4000 SHRA BKN007TCU BKN010
TAF LFBC 240200Z 2403/2503 32010KT 9999 OVC020 
     TEMPO 2403/2409 4000 SHRA BKN007TCU BKN010 
     TEMPO 2409/2414 4000 SHRA BKN015TCU 
     BECMG 2414/2415 SCT030 
     BECMG 2418/2420 BKN010
       
LFPG 240230Z 26005KT 9999 FEW007 13/13 Q1012 NOSIG
TAF LFPG 232300Z 2400/2506 29005KT CAVOK 
     PROB30 
     TEMPO 2402/2408 BKN008 
     PROB40 
     TEMPO 2404/2406 4000 BR 
     BECMG 2408/2410 BKN013 
     TEMPO 2410/2415 4000 -SHRA SCT013TCU 
     TEMPO 2413/2418 30012G25KT 
     BECMG 2418/2420 BKN020 TX19/2415Z TN12/2405Z
       
LFBG 240230Z AUTO 26008KT 9999 FEW012 OVC045 18/17 Q1015
LFOC 240230Z AUTO 29006KT CAVOK 13/12 Q1014
LFPT 240230Z AUTO 27004KT 9999 FEW019 13/12 Q1012
LFMN 240230Z 26006KT CAVOK 25/21 Q1008 NOSIG
TAF LFMN 240200Z 2403/2509 36006KT CAVOK 
     BECMG 2407/2409 12008KT FEW040CB SCT090 
     BECMG 2410/2412 26020G30KT 
     BECMG 2416/2418 09015G25KT CAVOK 
     BECMG 2419/2421 36010KT 
     BECMG 2507/2509 12010KT
       
LFLX 240230Z AUTO 32006KT 9999 -RA FEW006 SCT034 BKN076 15/14 Q1014 TEMPO BKN008
TAF LFLX 232300Z 2400/2506 21010KT 9999 BKN012 
     TEMPO 2400/2403 6000 -RA BKN008 
     PROB40 
     TEMPO 2400/2402 25010G20KT 2500 RA BKN004 
     BECMG 2403/2405 33007KT BKN020 
     PROB30 
     TEMPO 2403/2408 BKN008 
     BECMG 2408/2411 29010KT SCT025 
     PROB40 
     TEMPO 2414/2421 -SHRA SCT030TCU BKN140 
     TEMPO 2501/2506 BKN012 
     PROB30 
     TEMPO 2503/2506 BKN008
       
LFOV 240230Z AUTO 30008KT 9999 BKN010 BKN016 13/13 Q1015
LFST 240230Z AUTO 15004KT 9999 BKN056/// OVC068/// ///TCU 17/13 Q1010 BECMG FEW040 BKN060
TAF LFST 232300Z 2400/2424 18008KT 9999 FEW040 BKN060 
     BECMG 2402/2405 -RA 
     TEMPO 2405/2407 4000 RA BKN014 
     BECMG 2407/2409 28010KT 
     TEMPO 2411/2418 28015G30KT 4000 SHRA SCT030CB 
     BECMG 2418/2421 22005KT 
     TEMPO 2422/2424 -SHRA SCT030TCU
       
LFSN 240230Z AUTO 15007KT 120V180 8000 -RA BKN008/// BKN016/// BKN023/// 15/14 Q1009
LFOE 240230Z AUTO 27008KT 9999 BKN006 BKN016 13/12 Q1013
TAF LFOE 240200Z 2403/2503 27005KT 9999 SCT008 BKN020 
     TEMPO 2409/2415 4000 SHRA
       
LFTW 240230Z AUTO 31010KT 280V350 CAVOK 22/12 Q1013 NOSIG
TAF LFTW 240200Z 2403/2503 31010KT CAVOK 
     TEMPO 2410/2420 31020G30KT
       
LFRB 240230Z AUTO 30004KT 8000 SCT012 12/12 Q1018 TEMPO BKN002
TAF LFRB 232300Z 2400/2506 33006KT 9999 BKN007 
     TEMPO 2400/2407 BKN002 
     BECMG 2407/2409 BKN015
       
LFGA 240230Z AUTO 19010KT 9999 BKN056 OVC120 18/11 Q1010
LFBH 240230Z AUTO 33015KT 9999 BKN010 BKN014 OVC032 18/16 Q1015 BECMG BKN020
TAF AMD LFBH 240038Z 2400/2424 30015G25KT 9999 OVC009 
     BECMG 2401/2403 32015KT OVC015 
     BECMG 2404/2406 BKN020 
     BECMG 2408/2410 SCT025 
     TEMPO 2412/2420 30020G30KT
       
LFBA 240230Z AUTO 25007KT 210V290 9999 FEW036 BKN044 OVC050 19/14 Q1017
LFRJ 240230Z AUTO 30004KT 6000 BKN010 BKN016 12/12 Q1017
LFRH 240230Z AUTO 27006KT 9999 FEW015 12/12 Q1017 TEMPO 1000 MIFG BKN001
TAF LFRH 232300Z 2400/2424 33005KT CAVOK 
     TEMPO 2400/2403 BKN009 
     PROB30 2403/2406 1000 MIFG BKN001 
     BECMG 2407/2409 BKN015 
     BECMG 2410/2412 33010G20KT CAVOK 
     TEMPO 2412/2415 SCT015TCU SCT020 
     BECMG 2420/2422 BKN010
       
LFRO 240230Z AUTO 27009KT 9999 BKN008 OVC013 15/14 Q1017
TAF LFRO 231100Z 2312/2412 25007KT 9999 SCT008 BKN017 
     TEMPO 2312/2317 4000 RA OVC007 
     TEMPO 2321/2407 BKN008
       
LFPB 240230Z AUTO 27005KT 9999 FEW008 14/13 Q1012 TEMPO 4000 BR BKN008
TAF LFPB 232300Z 2400/2424 29005KT CAVOK 
     PROB30 
     TEMPO 2402/2408 BKN008 
     PROB40 
     TEMPO 2404/2406 4000 BR 
     BECMG 2408/2410 BKN013 
     TEMPO 2410/2418 30012G25KT 4000 -SHRA SCT013TCU 
     BECMG 2418/2420 BKN020 TX19/2415Z TN12/2405Z
       
LFMC 240230Z AUTO 24006KT 180V280 9999 ////// 24/14 Q1010
LFTH 240230Z AUTO 32003KT 290V350 CAVOK 23/15 Q1010 BECMG 27015G25KT
TAF LFTH 240200Z 2403/2503 30007KT CAVOK 
     BECMG 2403/2407 27015G25KT 
     BECMG 2407/2411 27019G35KT
       
LFAT 240230Z AUTO 30007KT 260V320 9999 BKN013 BKN084 BKN110 17/13 Q1010
LFMI 240230Z AUTO 29011KT CAVOK 22/12 Q1012 NOSIG
TAF LFMI 240200Z 2403/2503 30011KT CAVOK 
     BECMG 2403/2407 32013G23KT 
     TEMPO 2410/2503 32023G33KT
       
LFRI 240230Z AUTO 34006KT 6000 -DZ BKN006 OVC011 15/15 Q1016 BECMG BKN012
TAF AMD LFRI 231822Z 2318/2418 25010KT 9999 BKN012 
     TEMPO 2318/2324 3000 -RA BKN005 
     BECMG 2321/2324 33010KT 
     BECMG 2407/2410 BKN017
       
LFQQ 240230Z AUTO 24005KT CAVOK 14/12 Q1010 TEMPO BKN008
TAF LFQQ 232300Z 2400/2506 20005KT 9999 BKN030 
     TEMPO 2400/2405 BKN008 
     BECMG 2405/2407 3000 RA OVC012 
     BECMG 2410/2412 32010KT 9999 SCT030 
     TEMPO 2412/2418 4000 SHRA BKN025TCU 
     TEMPO 2500/2506 OVC007
       
LFBT 240230Z AUTO 24011KT 3900 -RA BR BKN027 OVC040 16/15 Q1020 BECMG OVC010
TAF LFBT 232300Z 2400/2424 24006KT 9999 BKN038 
     BECMG 2403/2406 4000 -RA OVC010 
     TEMPO 2406/2412 27015G25KT 2000 RA OVC005 
     BECMG 2412/2414 9999 NSW BKN020 
     BECMG 2414/2416 SCT030
       
LFMD 240230Z AUTO 20006KT 170V230 9999 FEW011 BKN150 24/18 Q1008 NOSIG
TAF LFMD 240200Z 2403/2503 VRB03KT CAVOK 
     BECMG 2406/2408 26015G25KT 
     BECMG 2410/2412 26025G40KT 
     BECMG 2419/2422 26015KT 
     BECMG 2422/2424 VRB03KT
       
LFJR 240230Z AUTO 30004KT 250V350 9999 BKN008 OVC012 15/14 Q1015
LFCR 240230Z AUTO 26007KT 9999 FEW008/// BKN016/// OVC033/// ///TCU 15/12 Q1018 TEMPO 3000 -RA BKN004 BKN013
TAF LFCR 232300Z 2400/2424 24004KT 9999 BKN040 
     BECMG 2400/2402 BKN009 BKN020 
     TEMPO 2402/2410 3000 -RA BKN004 BKN013 
     BECMG 2410/2413 29015G25KT BKN025 
     TEMPO 2420/2424 BKN012
       
LFRC 240230Z AUTO 27013KT 9999 OVC009 15/13 Q1013
LFCK 240230Z AUTO 29005KT 9999 BKN018 BKN056 OVC068 18/15 Q1019
TAF LFCK 231700Z 2318/2403 30010KT 9999 BKN040 
     TEMPO 2318/2320 SCT040 
     TEMPO 2401/2403 -RA BKN013
       
LFMT 240230Z AUTO 30010KT 9999 -RA ///TCU 22/15 Q1013 BECMG NSC
TAF LFMT 240200Z 2403/2503 31010KT CAVOK 
     BECMG 2410/2412 31020G30KT 
     TEMPO 2414/2421 31030G40KT
       
LFBD 240230Z AUTO 28007KT 9999 FEW010 SCT017 BKN047 19/17 Q1017 TEMPO 4000 -RA OVC004
TAF AMD LFBD 240140Z 2401/2506 29010KT 9999 BKN008 
     PROB40 
     TEMPO 2401/2404 4000 -RA OVC004 
     BECMG 2404/2406 BKN015 
     BECMG 2408/2410 BKN035 
     TEMPO 2422/2506 BKN015 TX22/2415Z TN17/2406Z
       
LFJL 240230Z AUTO 03005KT 4000 -RA BR OVC006/// 14/13 Q1010 TEMPO 2500 BKN008 SCT020TCU
TAF AMD LFJL 240231Z 2402/2424 03005KT 4000 -RA BKN012 
     TEMPO 2402/2406 2500 RA BKN005 SCT020TCU 
     BECMG 2406/2409 30010KT 9999 NSW SCT012 BKN040 
     TEMPO 2409/2418 30015G25KT 4000 SHRA SCT020CB 
     TEMPO 2420/2424 BKN010
       
LFRV 240230Z AUTO 31005KT CAVOK 12/11 Q1017
LFLP 240230Z AUTO 00000KT 9999 -RA OVC048 16/15 Q1015 TEMPO 4000 RA SCT014TCU BKN020
TAF LFLP 240200Z 2403/2503 VRB03KT 9999 BKN050 
     TEMPO 2403/2503 4000 RA SCT014TCU BKN020
       
LFSG 240230Z AUTO 17010KT 9999 BKN025/// OVC041/// ///TCU 15/13 Q1009
LFBM 240230Z AUTO 24006KT 210V280 4900 -RA BR BKN006/// OVC013/// ///TCU 18/17 Q1018
LFRZ 240230Z AUTO 30005KT 270V340 CAVOK 13/12 Q1017 TEMPO BKN012
TAF LFRZ 232300Z 2400/2424 32006KT 9999 BKN020 
     TEMPO 2400/2409 BKN012 
     TEMPO 2412/2415 30015G25KT
       
LFRS 240230Z AUTO 33005KT 9999 SCT012 BKN020 BKN027 14/14 Q1016 TEMPO BKN012
TAF LFRS 232300Z 2400/2506 32008KT 9999 BKN020 
     TEMPO 2400/2409 BKN012 
     PROB30 
     TEMPO 2502/2506 3000 BR BKN007
       
LFSO 240230Z AUTO 15008KT 9999 FEW007/// OVC017/// 14/14 Q1009
LFOH 240230Z AUTO 27012KT 240V300 9999 BKN010 OVC014 16/14 Q1012
TAF LFOH 231100Z 2312/2412 26015KT 9999 BKN020 
     TEMPO 2312/2320 4000 SHRA BKN013 BKN050TCU 
     BECMG 2322/2324 BKN013 
     TEMPO 2406/2409 3000 RA BKN007 
     BECMG 2409/2412 33010KT BKN030
       
LFPO 240230Z 29007KT 9999 SCT007 SCT043 13/12 Q1012 NOSIG
TAF LFPO 232300Z 2400/2506 VRB03KT 9999 -RA SCT015 BKN050 
     PROB30 
     TEMPO 2400/2401 4000 RA BKN007 
     BECMG 2401/2403 33007KT BKN020 
     PROB30 
     TEMPO 2403/2407 BKN008 
     TEMPO 2410/2421 30015G25KT -SHRA SCT017 BKN025TCU 
     TEMPO 2502/2506 BKN012
       
LFBP 240230Z AUTO 25005KT 7000 2900 -RADZ BKN021 OVC028 17/16 Q1019 TEMPO OVC010
TAF AMD LFBP 240142Z 2401/2424 26008KT 9999 BKN025 
     TEMPO 2401/2408 -RA OVC010 
     TEMPO 2408/2415 4000 SHRA BKN015TCU
       
LFRD 240230Z AUTO 30009KT 9999 BKN013 BKN020 BKN032 15/13 Q1015 TEMPO BKN008
TAF LFRD 232300Z 2400/2424 28008KT 9999 BKN020 
     TEMPO 2400/2408 BKN008 
     TEMPO 2406/2422 30015G25KT 
     BECMG 2419/2421 BKN008
       
LFRQ 240230Z AUTO 33005KT 300V360 9999 BKN010 14/13 Q1018
TAF LFRQ 231700Z 2318/2403 34006KT 8000 BKN009 BKN015 
     BECMG 2318/2320 BKN018 
     TEMPO 2321/2403 BKN007
       
LFKB 240230Z VRB02KT 9999 FEW020 SCT150 BKN200 25/20 Q1009 NOSIG
TAF LFKB 240200Z 2403/2503 VRB03KT 9999 FEW020 SCT100 OVC230 
     BECMG 2406/2408 14010KT 
     BECMG 2418/2420 24004KT 
     TEMPO 2420/2424 28010G20KT TX31/2412Z TN21/2404Z
       
LFRL 240230Z AUTO 30007KT 9999 SCT008 BKN013 14/13 Q1018
LFML 240230Z AUTO 29016KT CAVOK 23/12 Q1012 BECMG 32017G27KT
TAF LFML 240200Z 2403/2509 30013KT CAVOK 
     BECMG 2403/2407 32017G27KT 
     TEMPO 2410/2509 32025G37KT TX31/2412Z TN21/2404Z
       
LFQA 240230Z AUTO 26003KT 9999 FEW031 SCT038 BKN046 14/13 Q1011
LFMP 240230Z AUTO 27008KT CAVOK 21/14 Q1016 NOSIG
TAF LFMP 240200Z 2403/2503 31010KT CAVOK 
     BECMG 2409/2411 31015G30KT 
     TEMPO 2412/2419 31030G45KT
       
LFSI 240230Z AUTO 33007KT 7000 RA FEW006/// SCT056/// OVC072/// ///TCU 14/13 Q1011
TAF LFSI 240200Z 2403/2503 34010KT 8000 BKN015 
     TEMPO 2403/2406 3000 RA OVC008 
     BECMG 2406/2408 NSW BKN020 
     TEMPO 2410/2418 31015G25KT 4000 SHRA BKN015
       
LFBE 240230Z AUTO 22008KT 190V250 8000 RA SCT013/// BKN021/// BKN026/// ///CB 18/17 Q1016 TEMPO 4000 DZRA OVC005
TAF LFBE 232300Z 2400/2424 23010KT 9999 -RA OVC015 
     TEMPO 2400/2405 4000 DZRA OVC005 
     BECMG 2405/2407 30010KT 
     BECMG 2408/2410 BKN025 
     TEMPO 2414/2420 CAVOK
       
LFKC 240230Z AUTO 19007KT 160V240 CAVOK 26/17 Q1009 NOSIG
TAF LFKC 240200Z 2403/2503 18008KT CAVOK 
     BECMG 2405/2406 22010G20KT 
     BECMG 2408/2409 22015G40KT 
     TEMPO 2415/2418 21030G45KT 
     BECMG 2500/2503 VRB05KT
       
LFLL 240230Z 24004KT 9999 -SHRA NSC 19/13 Q1014 TEMPO SCT030TCU
TAF LFLL 232300Z 2400/2506 VRB02KT CAVOK 
     TEMPO 2401/2408 16010KT 4000 RA BKN040 
     PROB30 
     TEMPO 2404/2408 SCT030TCU 
     BECMG 2406/2408 34012KT 
     PROB40 
     TEMPO 2408/2506 4000 SHRA 
     PROB30 
     TEMPO 2412/2418 SCT035TCU 
     PROB30 
     TEMPO 2503/2506 BKN014
       
LFLS 240230Z AUTO 08002KT 9999 NSC 16/14 Q1015 NOSIG
TAF LFLS 240200Z 2403/2503 VRB02KT 9999 BKN050 
     TEMPO 2405/2411 RA SCT030TCU OVC045 
     BECMG 2409/2411 32012KT 
     BECMG 2419/2421 VRB02KT 
     TEMPO 2411/2503 -SHRA SCT030TCU BKN045 
     PROB40 2423/2503 4000 RA BKN012 SCT020TCU OVC030
       
LFSX 240230Z AUTO 12003KT 080V180 9999 RA FEW005 BKN035 OVC050 15/13 Q1011
LFLN 240230Z AUTO 19005KT 150V220 9999 BKN040 BKN072 BKN100 17/14 Q1013
TAF LFLN 231700Z 2318/2403 26006KT CAVOK 
     PROB40 
     TEMPO 2400/2403 4000 RA SCT035TCU
       
LFMY 240230Z AUTO 28006KT CAVOK 22/12 Q1012
TAF LFMY 231454Z 2315/2415 25012KT CAVOK 
     PROB30 
     TEMPO 2320/2324 24015G25KT 5000 SHRA SCT070CB 
     BECMG 2400/2402 31012KT 
     BECMG 2408/2410 30015G25KT
       
LFMK 240230Z AUTO 28010KT CAVOK 17/15 Q1017 NOSIG
TAF LFMK 240200Z 2403/2503 27010KT 9999 BKN050 
     BECMG 2410/2412 BKN035 
     TEMPO 2411/2503 27020G30KT
       
LFKS 240230Z AUTO 27004KT 240V300 9999 FEW019 24/21 Q1010
TAF LFKS 231400Z 2315/2415 16012KT 9999 FEW030 
     BECMG 2315/2317 04010KT 
     BECMG 2319/2322 27005KT 
     TEMPO 2409/2415 27015G30KT
       
LFAQ 240230Z AUTO 25007KT 9000 FEW012 SCT018 BKN029 13/12 Q1011
LFAT 240230Z AUTO 30007KT 260V320 9999 BKN013 BKN084 BKN110 17/13 Q1010
LFBA 240230Z AUTO 25007KT 210V290 9999 FEW036 BKN044 OVC050 19/14 Q1017
LFBC 240230Z AUTO 31011KT 270V340 9999 FEW015 BKN020 BKN028 19/17 Q1017 TEMPO 4000 SHRA BKN007TCU BKN010
TAF LFBC 240200Z 2403/2503 32010KT 9999 OVC020 
     TEMPO 2403/2409 4000 SHRA BKN007TCU BKN010 
     TEMPO 2409/2414 4000 SHRA BKN015TCU 
     BECMG 2414/2415 SCT030 
     BECMG 2418/2420 BKN010
       
LFBD 240230Z AUTO 28007KT 9999 FEW010 SCT017 BKN047 19/17 Q1017 TEMPO 4000 -RA OVC004
TAF AMD LFBD 240140Z 2401/2506 29010KT 9999 BKN008 
     PROB40 
     TEMPO 2401/2404 4000 -RA OVC004 
     BECMG 2404/2406 BKN015 
     BECMG 2408/2410 BKN035 
     TEMPO 2422/2506 BKN015 TX22/2415Z TN17/2406Z
       
LFBE 240230Z AUTO 22008KT 190V250 8000 RA SCT013/// BKN021/// BKN026/// ///CB 18/17 Q1016 TEMPO 4000 DZRA OVC005
TAF LFBE 232300Z 2400/2424 23010KT 9999 -RA OVC015 
     TEMPO 2400/2405 4000 DZRA OVC005 
     BECMG 2405/2407 30010KT 
     BECMG 2408/2410 BKN025 
     TEMPO 2414/2420 CAVOK
       
LFBG 240230Z AUTO 26008KT 9999 FEW012 OVC045 18/17 Q1015
LFBH 240230Z AUTO 33015KT 9999 BKN010 BKN014 OVC032 18/16 Q1015 BECMG BKN020
TAF AMD LFBH 240038Z 2400/2424 30015G25KT 9999 OVC009 
     BECMG 2401/2403 32015KT OVC015 
     BECMG 2404/2406 BKN020 
     BECMG 2408/2410 SCT025 
     TEMPO 2412/2420 30020G30KT
       
LFBI 240230Z AUTO 33005KT 9999 SCT005 BKN019 OVC039 15/14 Q1015 TEMPO 4000 -RADZ BECMG BKN012
TAF AMD LFBI 240135Z 2401/2424 33008KT 9999 BKN012 
     TEMPO 2401/2404 4000 -RADZ OVC005 
     BECMG 2408/2410 BKN030 
     TEMPO 2412/2420 -SHRA BKN045 
       
LFBL 240230Z AUTO 25006KT 210V280 9999 -RA OVC004 16/16 Q1015 TEMPO 26015G25KT 2000 RA
TAF AMD LFBL 240049Z 2400/2424 23009KT 9999 BKN010 
     TEMPO 2400/2408 26015G25KT 2000 RA BKN002 
     BECMG 2408/2410 BKN013 
     BECMG 2410/2413 BKN025
       
LFBM 240230Z AUTO 24006KT 210V280 4900 -RA BR BKN006/// OVC013/// ///TCU 18/17 Q1018
LFBO 240230Z AUTO 23005KT 190V260 9999 FEW047 OVC070 18/14 Q1018 TEMPO 3000 -RA BKN010
TAF LFBO 232300Z 2400/2506 25012KT 9999 BKN025 
     TEMPO 2404/2410 3000 -RA BKN010 
     TEMPO 2412/2424 30015G25KT 
     TEMPO 2500/2506 BKN010
       
LFBP 240230Z AUTO 25005KT 7000 2900 -RADZ BKN021 OVC028 17/16 Q1019 TEMPO OVC010
TAF AMD LFBP 240142Z 2401/2424 26008KT 9999 BKN025 
     TEMPO 2401/2408 -RA OVC010 
     TEMPO 2408/2415 4000 SHRA BKN015TCU
       
LFBT 240230Z AUTO 24011KT 3900 -RA BR BKN027 OVC040 16/15 Q1020 BECMG OVC010
TAF LFBT 232300Z 2400/2424 24006KT 9999 BKN038 
     BECMG 2403/2406 4000 -RA OVC010 
     TEMPO 2406/2412 27015G25KT 2000 RA OVC005 
     BECMG 2412/2414 9999 NSW BKN020 
     BECMG 2414/2416 SCT030
       
LFBU 240230Z AUTO 27007KT 9999 BKN007 OVC011 17/17 Q1015
TAF LFBU 231700Z 2318/2418 25012KT 9999 BKN045 
     BECMG 2318/2320 OVC010 
     TEMPO 2320/2403 3000 RA OVC005 
     BECMG 2407/2409 BKN026
       
LFBY 240230Z AUTO 27006KT 220V320 9999 // FEW006/// SCT027/// BKN045/// ///TCU 19/18 Q1018
LFBZ 240230Z AUTO 28014KT 9999 SCT015 SCT033 BKN039 20/17 Q1020 TEMPO 3000 RA OVC004 SCT010TCU
TAF AMD LFBZ 240116Z 2401/2424 26009KT 9999 BKN015 
     TEMPO 2401/2406 3000 RA OVC004 SCT010TCU 
     TEMPO 2406/2414 30015G25KT 3000 SHRA BKN010TCU 
     BECMG 2414/2416 BKN030
       
LFCK 240230Z AUTO 29005KT 9999 BKN018 BKN056 OVC068 18/15 Q1019
TAF LFCK 231700Z 2318/2403 30010KT 9999 BKN040 
     TEMPO 2318/2320 SCT040 
     TEMPO 2401/2403 -RA BKN013
       
LFCR 240230Z AUTO 26007KT 9999 FEW008/// BKN016/// OVC033/// ///TCU 15/12 Q1018 TEMPO 3000 -RA BKN004 BKN013
TAF LFCR 232300Z 2400/2424 24004KT 9999 BKN040 
     BECMG 2400/2402 BKN009 BKN020 
     TEMPO 2402/2410 3000 -RA BKN004 BKN013 
     BECMG 2410/2413 29015G25KT BKN025 
     TEMPO 2420/2424 BKN012
       
LFGA 240230Z AUTO 19010KT 9999 BKN056 OVC120 18/11 Q1010
LFGJ 240230Z AUTO 21013KT 9999 BKN033 BKN054 BKN110 18/14 Q1012
TAF LFGJ 240200Z 2403/2412 20011KT 5000 RA FEW008 SCT015 OVC030 
     BECMG 2406/2408 27010KT 9999 NSW 
     TEMPO 2410/2412 SHRA SCT030TCU
       
LFJL 240230Z AUTO 03005KT 4000 -RA BR OVC006/// 14/13 Q1010 TEMPO 2500 BKN008 SCT020TCU
TAF AMD LFJL 240231Z 2402/2424 03005KT 4000 -RA BKN012 
     TEMPO 2402/2406 2500 RA BKN005 SCT020TCU 
     BECMG 2406/2409 30010KT 9999 NSW SCT012 BKN040 
     TEMPO 2409/2418 30015G25KT 4000 SHRA SCT020CB 
     TEMPO 2420/2424 BKN010
       
LFJR 240230Z AUTO 30004KT 250V350 9999 BKN008 OVC012 15/14 Q1015
LFKB 240230Z VRB02KT 9999 FEW020 SCT150 BKN200 25/20 Q1009 NOSIG
TAF LFKB 240200Z 2403/2503 VRB03KT 9999 FEW020 SCT100 OVC230 
     BECMG 2406/2408 14010KT 
     BECMG 2418/2420 24004KT 
     TEMPO 2420/2424 28010G20KT TX31/2412Z TN21/2404Z
       
LFKC 240230Z AUTO 19007KT 160V240 CAVOK 26/17 Q1009 NOSIG
TAF LFKC 240200Z 2403/2503 18008KT CAVOK 
     BECMG 2405/2406 22010G20KT 
     BECMG 2408/2409 22015G40KT 
     TEMPO 2415/2418 21030G45KT 
     BECMG 2500/2503 VRB05KT
       
LFKF 240230Z AUTO 25014KT CAVOK 24/21 Q1010 NOSIG
TAF LFKF 240200Z 2403/2503 27010KT CAVOK 
     BECMG 2408/2409 27015G30KT 
     BECMG 2411/2412 27020G40KT
       
LFKJ 240230Z AUTO 17004KT 120V250 CAVOK 24/20 Q1011 NOSIG
TAF LFKJ 240200Z 2403/2503 05004KT CAVOK 
     BECMG 2406/2408 28010KT 
     BECMG 2411/2412 30010G22KT 
     BECMG 2500/2503 VRB05KT
       
LFKS 240230Z AUTO 27004KT 240V300 9999 FEW019 24/21 Q1010
TAF LFKS 231400Z 2315/2415 16012KT 9999 FEW030 
     BECMG 2315/2317 04010KT 
     BECMG 2319/2322 27005KT 
     TEMPO 2409/2415 27015G30KT
       
LFLB 240230Z AUTO VRB02KT 9999 RA SCT049/// OVC100/// ///TCU 18/15 Q1014 NOSIG
TAF LFLB 232300Z 2400/2424 VRB02KT CAVOK 
     BECMG 2402/2406 SHRA SCT030TCU BKN040
       
LFLC 240230Z AUTO 18005KT 9999 BKN032 BKN045 OVC054 17/14 Q1014 TEMPO 27015G25KT 4000 RA SCT030TCU OVC050
TAF LFLC 240200Z 2403/2503 23009KT 9999 BKN055 
     TEMPO 2403/2407 27015G25KT 4000 RA SCT030TCU OVC050 
     BECMG 2405/2407 30012KT 
     TEMPO 2407/2503 -SHRA SCT025TCU BKN040
       
LFLL 240230Z 24004KT 9999 -SHRA NSC 19/13 Q1014 TEMPO SCT030TCU
TAF LFLL 232300Z 2400/2506 VRB02KT CAVOK 
     TEMPO 2401/2408 16010KT 4000 RA BKN040 
     PROB30 
     TEMPO 2404/2408 SCT030TCU 
     BECMG 2406/2408 34012KT 
     PROB40 
     TEMPO 2408/2506 4000 SHRA 
     PROB30 
     TEMPO 2412/2418 SCT035TCU 
     PROB30 
     TEMPO 2503/2506 BKN014
       
LFLN 240230Z AUTO 19005KT 150V220 9999 BKN040 BKN072 BKN100 17/14 Q1013
TAF LFLN 231700Z 2318/2403 26006KT CAVOK 
     PROB40 
     TEMPO 2400/2403 4000 RA SCT035TCU
       
LFLP 240230Z AUTO 00000KT 9999 -RA OVC048 16/15 Q1015 TEMPO 4000 RA SCT014TCU BKN020
TAF LFLP 240200Z 2403/2503 VRB03KT 9999 BKN050 
     TEMPO 2403/2503 4000 RA SCT014TCU BKN020
       
LFLS 240230Z AUTO 08002KT 9999 NSC 16/14 Q1015 NOSIG
TAF LFLS 240200Z 2403/2503 VRB02KT 9999 BKN050 
     TEMPO 2405/2411 RA SCT030TCU OVC045 
     BECMG 2409/2411 32012KT 
     BECMG 2419/2421 VRB02KT 
     TEMPO 2411/2503 -SHRA SCT030TCU BKN045 
     PROB40 2423/2503 4000 RA BKN012 SCT020TCU OVC030
       
LFLW 240230Z AUTO VRB02KT 5000 -RA BR OVC007 14/13 Q1017
LFLX 240230Z AUTO 32006KT 9999 -RA FEW006 SCT034 BKN076 15/14 Q1014 TEMPO BKN008
TAF LFLX 232300Z 2400/2506 21010KT 9999 BKN012 
     TEMPO 2400/2403 6000 -RA BKN008 
     PROB40 
     TEMPO 2400/2402 25010G20KT 2500 RA BKN004 
     BECMG 2403/2405 33007KT BKN020 
     PROB30 
     TEMPO 2403/2408 BKN008 
     BECMG 2408/2411 29010KT SCT025 
     PROB40 
     TEMPO 2414/2421 -SHRA SCT030TCU BKN140 
     TEMPO 2501/2506 BKN012 
     PROB30 
     TEMPO 2503/2506 BKN008
       
LFLY 240230Z AUTO 25004KT 9999 ///TCU 20/13 Q1014 TEMPO RA
TAF LFLY 232300Z 2400/2424 VRB02KT 9999 BKN050 
     TEMPO 2401/2406 VRB12KT RA SCT040TCU OVC045 
     BECMG 2406/2408 32012KT 
     TEMPO 2408/2424 -SHRA SCT030TCU BKN040
       
LFMC 240230Z AUTO 24006KT 180V280 9999 ////// 24/14 Q1010
LFMD 240230Z AUTO 20006KT 170V230 9999 FEW011 BKN150 24/18 Q1008 NOSIG
TAF LFMD 240200Z 2403/2503 VRB03KT CAVOK 
     BECMG 2406/2408 26015G25KT 
     BECMG 2410/2412 26025G40KT 
     BECMG 2419/2422 26015KT 
     BECMG 2422/2424 VRB03KT
       
LFMH 240230Z AUTO VRB02KT 5000 RA BR SCT037/// BKN062/// OVC088/// ///TCU 17/14 Q1015 NOSIG
TAF LFMH 240200Z 2403/2503 17009KT 9999 BKN050 
     TEMPO 2403/2409 4000 RA SCT030TCU OVC050 
     BECMG 2407/2409 34012KT 
     TEMPO 2409/2503 -SHRA SCT025TCU BKN040
       
LFMI 240230Z AUTO 29011KT CAVOK 22/12 Q1012 NOSIG
TAF LFMI 240200Z 2403/2503 30011KT CAVOK 
     BECMG 2403/2407 32013G23KT 
     TEMPO 2410/2503 32023G33KT
       
LFMK 240230Z AUTO 28010KT CAVOK 17/15 Q1017 NOSIG
TAF LFMK 240200Z 2403/2503 27010KT 9999 BKN050 
     BECMG 2410/2412 BKN035 
     TEMPO 2411/2503 27020G30KT
       
LFML 240230Z AUTO 29016KT CAVOK 23/12 Q1012 BECMG 32017G27KT
TAF LFML 240200Z 2403/2509 30013KT CAVOK 
     BECMG 2403/2407 32017G27KT 
     TEMPO 2410/2509 32025G37KT TX31/2412Z TN21/2404Z
       
LFMN 240230Z 26006KT CAVOK 25/21 Q1008 NOSIG
TAF LFMN 240200Z 2403/2509 36006KT CAVOK 
     BECMG 2407/2409 12008KT FEW040CB SCT090 
     BECMG 2410/2412 26020G30KT 
     BECMG 2416/2418 09015G25KT CAVOK 
     BECMG 2419/2421 36010KT 
     BECMG 2507/2509 12010KT
       
LFMO 240230Z AUTO 34008KT CAVOK 23/12 Q1013 NOSIG
TAF LFMO 240200Z 2403/2503 30008KT CAVOK 
     BECMG 2411/2413 35015G25KT 
     TEMPO 2415/2503 35025G35KT
       
LFMP 240230Z AUTO 27008KT CAVOK 21/14 Q1016 NOSIG
TAF LFMP 240200Z 2403/2503 31010KT CAVOK 
     BECMG 2409/2411 31015G30KT 
     TEMPO 2412/2419 31030G45KT
       
LFMT 240230Z AUTO 30010KT 9999 -RA ///TCU 22/15 Q1013 BECMG NSC
TAF LFMT 240200Z 2403/2503 31010KT CAVOK 
     BECMG 2410/2412 31020G30KT 
     TEMPO 2414/2421 31030G40KT
       
LFMU 240230Z AUTO 28010KT CAVOK 22/14 Q1015 NOSIG
TAF LFMU 240200Z 2403/2503 29015KT CAVOK 
     TEMPO 2412/2419 29025G35KT
       
LFMV 240230Z AUTO 32006KT CAVOK 23/12 Q1013 NOSIG
TAF LFMV 240200Z 2403/2503 30009KT CAVOK 
     TEMPO 2403/2412 35013G23KT 
     TEMPO 2412/2421 35019G33KT
       
LFMY 240230Z AUTO 28006KT CAVOK 22/12 Q1012
TAF LFMY 231454Z 2315/2415 25012KT CAVOK 
     PROB30 
     TEMPO 2320/2324 24015G25KT 5000 SHRA SCT070CB 
     BECMG 2400/2402 31012KT 
     BECMG 2408/2410 30015G25KT
       
LFOA 240230Z AUTO 29005KT 9999 -RA BKN012/// BKN020/// BKN050/// ///TCU 15/14 Q1013
LFOB 240230Z AUTO 26004KT 9999 FEW013 SCT050 OVC062 14/12 Q1012 NOSIG
TAF LFOB 232300Z 2400/2424 27005KT 9999 BKN033 
     BECMG 2404/2407 BKN025 
     TEMPO 2412/2416 SHRA BKN013TCU
       
LFOC 240230Z AUTO 29006KT CAVOK 13/12 Q1014
LFOE 240230Z AUTO 27008KT 9999 BKN006 BKN016 13/12 Q1013
TAF LFOE 240200Z 2403/2503 27005KT 9999 SCT008 BKN020 
     TEMPO 2409/2415 4000 SHRA
       
LFOH 240230Z AUTO 27012KT 240V300 9999 BKN010 OVC014 16/14 Q1012
TAF LFOH 231100Z 2312/2412 26015KT 9999 BKN020 
     TEMPO 2312/2320 4000 SHRA BKN013 BKN050TCU 
     BECMG 2322/2324 BKN013 
     TEMPO 2406/2409 3000 RA BKN007 
     BECMG 2409/2412 33010KT BKN030
       
LFOJ 240230Z AUTO 30005KT 9999 SCT007 OVC048 14/14 Q1013
TAF LFOJ 231400Z 2315/2415 25015G25KT 9999 BKN030 
     TEMPO 2315/2406 4500 -RA OVC012 
     PROB40 
     TEMPO 2320/2403 3000 RA OVC005 
     PROB40 
     TEMPO 2403/2408 BKN006 
     PROB30 
     TEMPO 2408/2415 -SHRA BKN020
       
LFOK 240230Z AUTO 35004KT 7000 -RA SCT002 BKN026 BKN048 13/13 Q1011 TEMPO RA OVC007
TAF LFOK 232300Z 2400/2424 31007KT 9999 BKN040 
     TEMPO 2400/2406 RA OVC007 
     TEMPO 2410/2418 4000 SHRA BKN015TCU
       
LFOP 240230Z AUTO 26006KT 230V290 8000 BKN007 BKN015 BKN035 13/12 Q1013
TAF LFOP 231700Z 2318/2418 25013KT 9999 BKN025 
     TEMPO 2318/2322 4000 SHRA BKN010 BKN015TCU 
     BECMG 2322/2324 27007KT BKN013 
     TEMPO 2403/2406 OVC007 
     BECMG 2409/2412 33010KT BKN030 
     TEMPO 2415/2418 SHRA BKN015TCU
       
LFOT 240230Z AUTO 30005KT 9999 FEW008 14/13 Q1014 TEMPO BKN008
TAF AMD LFOT 232322Z 2400/2424 21010KT 9999 SCT015 BKN050 
     TEMPO 2400/2401 6000 -RA BKN012 
     PROB40 
     TEMPO 2400/2401 2500 RA BKN004 
     BECMG 2401/2403 33007KT BKN020 
     PROB30 
     TEMPO 2401/2408 BKN008 
     BECMG 2408/2411 29010KT SCT025 
     PROB40 
     TEMPO 2411/2419 -SHRA SCT030TCU BKN140 
     TEMPO 2422/2424 BKN012
       
LFOV 240230Z AUTO 30008KT 9999 BKN010 BKN016 13/13 Q1015
LFPB 240230Z AUTO 27005KT 9999 FEW008 14/13 Q1012 TEMPO 4000 BR BKN008
TAF LFPB 232300Z 2400/2424 29005KT CAVOK 
     PROB30 
     TEMPO 2402/2408 BKN008 
     PROB40 
     TEMPO 2404/2406 4000 BR 
     BECMG 2408/2410 BKN013 
     TEMPO 2410/2418 30012G25KT 4000 -SHRA SCT013TCU 
     BECMG 2418/2420 BKN020 TX19/2415Z TN12/2405Z
       
LFPG 240230Z 26005KT 9999 FEW007 13/13 Q1012 NOSIG
TAF LFPG 232300Z 2400/2506 29005KT CAVOK 
     PROB30 
     TEMPO 2402/2408 BKN008 
     PROB40 
     TEMPO 2404/2406 4000 BR 
     BECMG 2408/2410 BKN013 
     TEMPO 2410/2415 4000 -SHRA SCT013TCU 
     TEMPO 2413/2418 30012G25KT 
     BECMG 2418/2420 BKN020 TX19/2415Z TN12/2405Z
       
LFPM 240230Z AUTO 29006KT 9999 SCT043 SCT049 14/13 Q1012
LFPN 240230Z AUTO 29007KT 9999 BKN006 BKN011 BKN022 13/13 Q1012
TAF LFPN 231700Z 2318/2403 24013KT 9999 BKN030 
     TEMPO 2318/2401 4000 -RA BKN012
       
LFPO 240230Z 29007KT 9999 SCT007 SCT043 13/12 Q1012 NOSIG
TAF LFPO 232300Z 2400/2506 VRB03KT 9999 -RA SCT015 BKN050 
     PROB30 
     TEMPO 2400/2401 4000 RA BKN007 
     BECMG 2401/2403 33007KT BKN020 
     PROB30 
     TEMPO 2403/2407 BKN008 
     TEMPO 2410/2421 30015G25KT -SHRA SCT017 BKN025TCU 
     TEMPO 2502/2506 BKN012
       
LFPT 240230Z AUTO 27004KT 9999 FEW019 13/12 Q1012
LFPV 240230Z AUTO 28009KT 9999 FEW006 SCT025 13/13 Q1012 BECMG BKN005 BKN020
TAF LFPV 240200Z 2403/2503 30010KT 9999 BKN005 BKN020 
     BECMG 2408/2410 SCT012 BKN025 
     TEMPO 2410/2420 30012G22KT 5000 -SHRA BKN010 BKN020TCU 
     BECMG 2422/2424 BKN005
       
LFQA 240230Z AUTO 26003KT 9999 FEW031 SCT038 BKN046 14/13 Q1011
LFQB 240230Z AUTO 32008KT 9999 -RA OVC003 14/14 Q1011
LFQQ 240230Z AUTO 24005KT CAVOK 14/12 Q1010 TEMPO BKN008
TAF LFQQ 232300Z 2400/2506 20005KT 9999 BKN030 
     TEMPO 2400/2405 BKN008 
     BECMG 2405/2407 3000 RA OVC012 
     BECMG 2410/2412 32010KT 9999 SCT030 
     TEMPO 2412/2418 4000 SHRA BKN025TCU 
     TEMPO 2500/2506 OVC007
       
LFRB 240230Z AUTO 30004KT 8000 SCT012 12/12 Q1018 TEMPO BKN002
TAF LFRB 232300Z 2400/2506 33006KT 9999 BKN007 
     TEMPO 2400/2407 BKN002 
     BECMG 2407/2409 BKN015
       
LFRC 240230Z AUTO 27013KT 9999 OVC009 15/13 Q1013
LFRD 240230Z AUTO 30009KT 9999 BKN013 BKN020 BKN032 15/13 Q1015 TEMPO BKN008
TAF LFRD 232300Z 2400/2424 28008KT 9999 BKN020 
     TEMPO 2400/2408 BKN008 
     TEMPO 2406/2422 30015G25KT 
     BECMG 2419/2421 BKN008
       
LFRG 240230Z AUTO 26009KT 9999 OVC004 14/13 Q1013
LFRH 240230Z AUTO 27006KT 9999 FEW015 12/12 Q1017 TEMPO 1000 MIFG BKN001
TAF LFRH 232300Z 2400/2424 33005KT CAVOK 
     TEMPO 2400/2403 BKN009 
     PROB30 2403/2406 1000 MIFG BKN001 
     BECMG 2407/2409 BKN015 
     BECMG 2410/2412 33010G20KT CAVOK 
     TEMPO 2412/2415 SCT015TCU SCT020 
     BECMG 2420/2422 BKN010
       
LFRI 240230Z AUTO 34006KT 6000 -DZ BKN006 OVC011 15/15 Q1016 BECMG BKN012
TAF AMD LFRI 231822Z 2318/2418 25010KT 9999 BKN012 
     TEMPO 2318/2324 3000 -RA BKN005 
     BECMG 2321/2324 33010KT 
     BECMG 2407/2410 BKN017
       
LFRJ 240230Z AUTO 30004KT 6000 BKN010 BKN016 12/12 Q1017
LFRK 240230Z AUTO 26009KT CAVOK 13/13 Q1013
LFRL 240230Z AUTO 30007KT 9999 SCT008 BKN013 14/13 Q1018
LFRM 240230Z AUTO VRB02KT 9999 FEW006 BKN012 13/12 Q1015
TAF AMD LFRM 231808Z 2318/2403 VRB03KT 9999 BKN020 
     TEMPO 2318/2323 3000 -RA BKN004 OVC012 
     BECMG 2321/2323 34006KT
       
LFRN 240230Z AUTO 26004KT 7000 FEW030 11/11 Q1016 TEMPO BKN008
TAF LFRN 232300Z 2400/2424 29008KT 9999 BKN030 
     TEMPO 2400/2408 BKN008 
     TEMPO 2412/2418 32015G25KT 
     BECMG 2422/2424 BKN008
       
LFRO 240230Z AUTO 27009KT 9999 BKN008 OVC013 15/14 Q1017
TAF LFRO 231100Z 2312/2412 25007KT 9999 SCT008 BKN017 
     TEMPO 2312/2317 4000 RA OVC007 
     TEMPO 2321/2407 BKN008
       
LFRQ 240230Z AUTO 33005KT 300V360 9999 BKN010 14/13 Q1018
TAF LFRQ 231700Z 2318/2403 34006KT 8000 BKN009 BKN015 
     BECMG 2318/2320 BKN018 
     TEMPO 2321/2403 BKN007
       
LFRS 240230Z AUTO 33005KT 9999 SCT012 BKN020 BKN027 14/14 Q1016 TEMPO BKN012
TAF LFRS 232300Z 2400/2506 32008KT 9999 BKN020 
     TEMPO 2400/2409 BKN012 
     PROB30 
     TEMPO 2502/2506 3000 BR BKN007
       
LFRT 232100Z AUTO 31005KT 9000 BKN006 13/13 Q1016
LFRV 240230Z AUTO 31005KT CAVOK 12/11 Q1017
LFRZ 240230Z AUTO 30005KT 270V340 CAVOK 13/12 Q1017 TEMPO BKN012
TAF LFRZ 232300Z 2400/2424 32006KT 9999 BKN020 
     TEMPO 2400/2409 BKN012 
     TEMPO 2412/2415 30015G25KT
       
LFSB 240230Z 17004KT 9999 RA SCT055 BKN070 16/14 Q1012 NOSIG
TAF LFSB 232301Z 2400/2424 19005KT 9999 FEW040 SCT065 BKN120 
     TEMPO 2404/2408 4000 RA 
     BECMG 2408/2410 26013KT FEW030TCU 
     TEMPO 2411/2424 29015G25KT 4500 SHRA SCT035CB BKN050 
     PROB30 
     TEMPO 2415/2418 TSRA
       
LFSG 240230Z AUTO 17010KT 9999 BKN025/// OVC041/// ///TCU 15/13 Q1009
LFSI 240230Z AUTO 33007KT 7000 RA FEW006/// SCT056/// OVC072/// ///TCU 14/13 Q1011
TAF LFSI 240200Z 2403/2503 34010KT 8000 BKN015 
     TEMPO 2403/2406 3000 RA OVC008 
     BECMG 2406/2408 NSW BKN020 
     TEMPO 2410/2418 31015G25KT 4000 SHRA BKN015
       
LFSL 240230Z AUTO 21005KT 170V260 9999 OVC003/// ///TCU 16/15 Q1016 TEMPO 4000 -RA
TAF LFSL 240200Z 2403/2412 22005KT 9999 BKN006 
     TEMPO 2403/2410 4000 -RA BKN004 SCT020TCU 
     BECMG 2410/2412 BKN012
       
LFSN 240230Z AUTO 15007KT 120V180 8000 -RA BKN008/// BKN016/// BKN023/// 15/14 Q1009
LFSO 240230Z AUTO 15008KT 9999 FEW007/// OVC017/// 14/14 Q1009
LFST 240230Z AUTO 15004KT 9999 BKN056/// OVC068/// ///TCU 17/13 Q1010 BECMG FEW040 BKN060
TAF LFST 232300Z 2400/2424 18008KT 9999 FEW040 BKN060 
     BECMG 2402/2405 -RA 
     TEMPO 2405/2407 4000 RA BKN014 
     BECMG 2407/2409 28010KT 
     TEMPO 2411/2418 28015G30KT 4000 SHRA SCT030CB 
     BECMG 2418/2421 22005KT 
     TEMPO 2422/2424 -SHRA SCT030TCU
       
LFSX 240230Z AUTO 12003KT 080V180 9999 RA FEW005 BKN035 OVC050 15/13 Q1011
LFTH 240230Z AUTO 32003KT 290V350 CAVOK 23/15 Q1010 BECMG 27015G25KT
TAF LFTH 240200Z 2403/2503 30007KT CAVOK 
     BECMG 2403/2407 27015G25KT 
     BECMG 2407/2411 27019G35KT
       
LFTW 240230Z AUTO 31010KT 280V350 CAVOK 22/12 Q1013 NOSIG
TAF LFTW 240200Z 2403/2503 31010KT CAVOK 
     TEMPO 2410/2420 31020G30KT
       
LFVP 232100Z 28018G30KT CAVOK 16/09 Q1007 NOSIG
LFYR 240230Z AUTO 28003KT 250V320 9999 FEW003 BKN009 OVC027 15/14 Q1014
LFRG 240230Z AUTO 26009KT 9999 OVC004 14/13 Q1013
LFRN 240230Z AUTO 26004KT 7000 FEW030 11/11 Q1016 TEMPO BKN008
TAF LFRN 232300Z 2400/2424 29008KT 9999 BKN030 
     TEMPO 2400/2408 BKN008 
     TEMPO 2412/2418 32015G25KT 
     BECMG 2422/2424 BKN008
       
LFKF 240230Z AUTO 25014KT CAVOK 24/21 Q1010 NOSIG
TAF LFKF 240200Z 2403/2503 27010KT CAVOK 
     BECMG 2408/2409 27015G30KT 
     BECMG 2411/2412 27020G40KT
       
LFGJ 240230Z AUTO 21013KT 9999 BKN033 BKN054 BKN110 18/14 Q1012
TAF LFGJ 240200Z 2403/2412 20011KT 5000 RA FEW008 SCT015 OVC030 
     BECMG 2406/2408 27010KT 9999 NSW 
     TEMPO 2410/2412 SHRA SCT030TCU
       
LFOB 240230Z AUTO 26004KT 9999 FEW013 SCT050 OVC062 14/12 Q1012 NOSIG
TAF LFOB 232300Z 2400/2424 27005KT 9999 BKN033 
     BECMG 2404/2407 BKN025 
     TEMPO 2412/2416 SHRA BKN013TCU
       
LFPN 240230Z AUTO 29007KT 9999 BKN006 BKN011 BKN022 13/13 Q1012
TAF LFPN 231700Z 2318/2403 24013KT 9999 BKN030 
     TEMPO 2318/2401 4000 -RA BKN012
       
LFOT 240230Z AUTO 30005KT 9999 FEW008 14/13 Q1014 TEMPO BKN008
TAF AMD LFOT 232322Z 2400/2424 21010KT 9999 SCT015 BKN050 
     TEMPO 2400/2401 6000 -RA BKN012 
     PROB40 
     TEMPO 2400/2401 2500 RA BKN004 
     BECMG 2401/2403 33007KT BKN020 
     PROB30 
     TEMPO 2401/2408 BKN008 
     BECMG 2408/2411 29010KT SCT025 
     PROB40 
     TEMPO 2411/2419 -SHRA SCT030TCU BKN140 
     TEMPO 2422/2424 BKN012
       
LFOP 240230Z AUTO 26006KT 230V290 8000 BKN007 BKN015 BKN035 13/12 Q1013
TAF LFOP 231700Z 2318/2418 25013KT 9999 BKN025 
     TEMPO 2318/2322 4000 SHRA BKN010 BKN015TCU 
     BECMG 2322/2324 27007KT BKN013 
     TEMPO 2403/2406 OVC007 
     BECMG 2409/2412 33010KT BKN030 
     TEMPO 2415/2418 SHRA BKN015TCU
       
LFOK 240230Z AUTO 35004KT 7000 -RA SCT002 BKN026 BKN048 13/13 Q1011 TEMPO RA OVC007
TAF LFOK 232300Z 2400/2424 31007KT 9999 BKN040 
     TEMPO 2400/2406 RA OVC007 
     TEMPO 2410/2418 4000 SHRA BKN015TCU
       
LFPV 240230Z AUTO 28009KT 9999 FEW006 SCT025 13/13 Q1012 BECMG BKN005 BKN020
TAF LFPV 240200Z 2403/2503 30010KT 9999 BKN005 BKN020 
     BECMG 2408/2410 SCT012 BKN025 
     TEMPO 2410/2420 30012G22KT 5000 -SHRA BKN010 BKN020TCU 
     BECMG 2422/2424 BKN005
       
LFMU 240230Z AUTO 28010KT CAVOK 22/14 Q1015 NOSIG
TAF LFMU 240200Z 2403/2503 29015KT CAVOK 
     TEMPO 2412/2419 29025G35KT
       
LFPM 240230Z AUTO 29006KT 9999 SCT043 SCT049 14/13 Q1012